Ana Sayfa
METAR-TAF:

METAR-TAF

Havaalanları :

South Jersey Regional Airport

Mount Holly, New Jersey, Amerika Birleşik Devletleri

Enlem: 39-56-26N, Boylam: 074-50-28W, yükseklik: 16 m

Güncel hava durumu gözlemi

Rapor saat 10:54 UTC de 50 dakika önce yapıldı.
Rüzgar batı/kuzeybatıdan 4 kt
Sıcaklık 22°C
Nem 69%
Basınç 1017 hPa
Görüş mesafesi: 16.1 km
Açık gökyüzü

METAR: KVAY 261054Z AUTO 29004KT 10SM CLR 22/16 A3003 RMK AO2 SLP169 T02170156

Saat: 07:44 (11:44 UTC)


TAF: eksik

4.000'den fazla havaalanı için hava durumu gözlemleri ve tahminleri (METAR ve TAF raporları).

Kullanılabilir istasyonlar harita üzerinde sarı ve kırmızı noktalarla gösterilir.

İstasyonun adını görmek için fareyi noktanın üzerinde gezdirin.

Sonrasında hava gözlem ve tahminlerini görmek için tıklayın.

Haritayı değiştirmek için: yaklaştırmak için siyah artı işaretli yeşil düğmeye ve uzaklaştırmak için de eksi işaretli düğmeye hızla tıklayın; bitişik haritalar için yeşil okları kullanın.


METAR-TAF: